createdAt,value
2017-11-14T00:00:51.123Z,98.86
2017-11-14T00:01:51.105Z,98.96
2017-11-14T00:02:50.768Z,98.77
2017-11-14T00:03:51.078Z,99.05
2017-11-14T00:04:51.063Z,98.86
2017-11-14T00:05:51.059Z,98.77
2017-11-14T00:06:51.041Z,98.96
2017-11-14T00:07:51.020Z,98.68
2017-11-14T00:08:51.006Z,98.86
2017-11-14T00:09:50.997Z,98.68
2017-11-14T00:10:50.980Z,98.58
2017-11-14T00:11:50.639Z,98.68
2017-11-14T00:12:50.947Z,98.68
2017-11-14T00:13:50.932Z,98.58
2017-11-14T00:14:50.924Z,98.58
2017-11-14T00:15:50.912Z,98.77
2017-11-14T00:16:50.896Z,98.49
2017-11-14T00:17:50.884Z,98.58
2017-11-14T00:18:50.869Z,98.68
2017-11-14T00:19:50.849Z,98.96
2017-11-14T00:20:50.831Z,98.68
2017-11-14T00:21:50.821Z,98.77
2017-11-14T00:22:50.480Z,98.77
2017-11-14T00:23:50.469Z,98.77
2017-11-14T00:24:50.776Z,98.68
2017-11-14T00:25:50.770Z,98.68
2017-11-14T00:26:50.750Z,98.39
2017-11-14T00:27:50.737Z,98.58
2017-11-14T00:28:50.715Z,98.77
2017-11-14T00:29:50.703Z,98.68
2017-11-14T00:30:50.690Z,98.3
2017-11-14T00:31:50.677Z,98.58
2017-11-14T00:32:50.346Z,98.68
2017-11-14T00:33:50.659Z,98.68
2017-11-14T00:34:50.308Z,98.96
2017-11-14T00:35:50.622Z,98.68
2017-11-14T00:36:50.605Z,98.77
2017-11-14T00:37:50.600Z,98.58
2017-11-14T00:38:50.577Z,98.68
2017-11-14T00:39:50.560Z,98.58
2017-11-14T00:40:50.548Z,98.68
2017-11-14T00:41:50.531Z,98.68
2017-11-14T00:42:50.516Z,98.49
2017-11-14T00:43:50.502Z,98.96
2017-11-14T00:44:50.488Z,98.58
2017-11-14T00:45:50.484Z,98.58
2017-11-14T00:46:50.458Z,98.68
2017-11-14T00:47:50.444Z,98.77
2017-11-14T00:48:50.427Z,98.86
2017-11-14T00:49:50.415Z,98.77
2017-11-14T00:50:50.403Z,98.39
2017-11-14T00:51:50.385Z,98.58
2017-11-14T00:52:50.372Z,98.77
2017-11-14T00:53:50.365Z,98.77
2017-11-14T00:54:50.374Z,98.58
2017-11-14T00:55:50.329Z,98.77
2017-11-14T00:56:50.317Z,98.86
2017-11-14T00:57:49.977Z,98.68
2017-11-14T00:58:50.285Z,98.68
2017-11-14T00:59:50.273Z,98.49
2017-11-14T01:00:50.256Z,98.3
2017-11-14T01:01:49.920Z,98.3
2017-11-14T01:02:50.236Z,98.3
2017-11-14T01:03:50.230Z,98.49
2017-11-14T01:04:50.200Z,98.01
2017-11-14T01:05:50.185Z,98.3
2017-11-14T01:06:50.179Z,98.11
2017-11-14T01:07:49.831Z,98.86
2017-11-14T01:08:50.142Z,98.54
2017-11-14T01:09:50.166Z,98.68
2017-11-14T01:10:50.111Z,98.25
2017-11-14T01:11:50.102Z,98.54
2017-11-14T01:12:50.084Z,98.68
2017-11-14T01:13:50.072Z,98.72
2017-11-14T01:14:50.058Z,98.77
2017-11-14T01:15:50.044Z,98.25
2017-11-14T01:16:50.028Z,98.49
2017-11-14T01:17:50.011Z,98.68
2017-11-14T01:18:50.000Z,98.3
2017-11-14T01:19:49.986Z,97.92
2017-11-14T01:20:49.978Z,98.63
2017-11-14T01:21:49.631Z,98.16
2017-11-14T01:22:49.951Z,97.97
2017-11-14T01:23:49.932Z,98.06
2017-11-14T01:24:49.912Z,98.54
2017-11-14T01:25:49.899Z,97.97
2017-11-14T01:26:49.888Z,98.54
2017-11-14T01:27:49.884Z,97.87
2017-11-14T01:28:49.857Z,98.06
2017-11-14T01:29:49.531Z,98.06
2017-11-14T01:30:49.830Z,98.16
2017-11-14T01:31:49.817Z,97.97
2017-11-14T01:32:49.814Z,98.06
2017-11-14T01:33:49.798Z,98.16
2017-11-14T01:34:49.779Z,98.16
2017-11-14T01:35:49.771Z,97.97
2017-11-14T01:36:49.741Z,98.16
2017-11-14T01:37:49.726Z,98.16
2017-11-14T01:38:49.714Z,98.16
2017-11-14T01:39:49.701Z,98.16
2017-11-14T01:40:49.689Z,98.16
2017-11-14T01:41:49.670Z,98.16
2017-11-14T01:42:49.658Z,98.16
2017-11-14T01:43:49.642Z,98.16
2017-11-14T01:44:49.630Z,98.06
2017-11-14T01:45:49.616Z,97.97
2017-11-14T01:46:49.599Z,98.06
2017-11-14T01:47:49.587Z,98.16
2017-11-14T01:48:49.584Z,97.97
2017-11-14T01:49:49.567Z,98.16
2017-11-14T01:50:49.576Z,98.16
2017-11-14T01:51:49.539Z,98.06
2017-11-14T01:52:49.521Z,98.16
2017-11-14T01:53:49.502Z,98.16
2017-11-14T01:54:49.492Z,98.16
2017-11-14T01:55:49.474Z,98.25
2017-11-14T01:56:49.459Z,98.25
2017-11-14T01:57:49.445Z,98.06
2017-11-14T01:58:49.430Z,98.16
2017-11-14T01:59:49.419Z,97.97
2017-11-14T02:00:49.403Z,97.97
2017-11-14T02:01:49.645Z,98.06
2017-11-14T02:02:49.373Z,98.16
2017-11-14T02:03:49.361Z,97.78
2017-11-14T02:04:49.346Z,98.16
2017-11-14T02:05:49.337Z,97.78
2017-11-14T02:06:49.324Z,97.68
2017-11-14T02:07:49.307Z,97.87
2017-11-14T02:08:49.290Z,98.06
2017-11-14T02:09:49.275Z,97.68
2017-11-14T02:10:49.266Z,98.06
2017-11-14T02:11:49.248Z,98.06
2017-11-14T02:12:49.236Z,97.97
2017-11-14T02:13:49.221Z,98.06
2017-11-14T02:14:49.208Z,97.78
2017-11-14T02:15:48.873Z,98.06
2017-11-14T02:16:49.178Z,97.87
2017-11-14T02:17:49.170Z,97.78
2017-11-14T02:18:49.151Z,98.06
2017-11-14T02:19:48.812Z,97.97
2017-11-14T02:20:49.129Z,97.78
2017-11-14T02:21:49.113Z,97.87
2017-11-14T02:22:49.097Z,98.25
2017-11-14T02:23:49.080Z,98.16
2017-11-14T02:24:49.089Z,98.06
2017-11-14T02:25:49.051Z,97.97
2017-11-14T02:26:49.040Z,97.97
2017-11-14T02:27:48.698Z,98.06
2017-11-14T02:28:49.011Z,98.06
2017-11-14T02:29:49.031Z,98.06
2017-11-14T02:30:48.982Z,97.97
2017-11-14T02:31:48.973Z,97.97
2017-11-14T02:32:49.208Z,98.25
2017-11-14T02:33:48.946Z,98.06
2017-11-14T02:34:48.925Z,98.16
2017-11-14T02:35:48.920Z,98.25
2017-11-14T02:36:48.899Z,98.25
2017-11-14T02:37:48.557Z,98.16
2017-11-14T02:38:48.875Z,98.25
2017-11-14T02:39:48.882Z,97.97
2017-11-14T02:40:48.842Z,98.25
2017-11-14T02:41:48.830Z,98.06
2017-11-14T02:42:48.812Z,98.25
2017-11-14T02:43:48.812Z,97.97
2017-11-14T02:44:48.793Z,98.16
2017-11-14T02:45:48.773Z,97.73
2017-11-14T02:46:48.761Z,97.82
2017-11-14T02:47:48.755Z,97.97
2017-11-14T02:48:48.727Z,98.3
2017-11-14T02:49:48.715Z,98.39
2017-11-14T02:50:48.741Z,98.01
2017-11-14T02:51:48.687Z,98.2
2017-11-14T02:52:48.675Z,97.92
2017-11-14T02:53:48.661Z,98.39
2017-11-14T02:54:48.649Z,98.2
2017-11-14T02:55:48.632Z,98.01
2017-11-14T02:56:48.628Z,98.01
2017-11-14T02:57:48.613Z,98.49
2017-11-14T02:58:48.588Z,97.92
2017-11-14T02:59:48.569Z,98.49
2017-11-14T03:00:48.569Z,98.39
2017-11-14T03:01:48.540Z,98.2
2017-11-14T03:02:48.529Z,98.49
2017-11-14T03:03:48.766Z,98.39
2017-11-14T03:04:48.500Z,98.3
2017-11-14T03:05:48.483Z,98.3
2017-11-14T03:06:48.150Z,98.49
2017-11-14T03:07:48.452Z,98.2
2017-11-14T03:08:48.445Z,98.49
2017-11-14T03:09:48.428Z,98.2
2017-11-14T03:10:48.413Z,98.11
2017-11-14T03:11:48.397Z,98.2
2017-11-14T03:12:48.388Z,98.2
2017-11-14T03:13:48.366Z,98.3
2017-11-14T03:14:48.352Z,98.11
2017-11-14T03:15:48.340Z,98.2
2017-11-14T03:16:48.322Z,98.39
2017-11-14T03:17:48.326Z,98.3
2017-11-14T03:18:48.296Z,98.3
2017-11-14T03:19:48.288Z,98.2
2017-11-14T03:20:47.943Z,97.87
2017-11-14T03:21:48.250Z,98.01
2017-11-14T03:22:48.236Z,98.06
2017-11-14T03:23:48.220Z,98.06
2017-11-14T03:24:48.213Z,97.96
2017-11-14T03:25:48.193Z,98.15
2017-11-14T03:26:48.192Z,98.15
2017-11-14T03:27:48.161Z,98.06
2017-11-14T03:28:48.149Z,98.25
2017-11-14T03:29:48.132Z,98.63
2017-11-14T03:30:48.127Z,98.53
2017-11-14T03:31:48.109Z,98.53
2017-11-14T03:32:48.107Z,98.72
2017-11-14T03:33:48.077Z,98.44
2017-11-14T03:34:48.062Z,98.63
2017-11-14T03:35:48.045Z,98.25
2017-11-14T03:36:48.031Z,98.44
2017-11-14T03:37:48.014Z,98.44
2017-11-14T03:38:48.007Z,98.44
2017-11-14T03:39:47.987Z,98.91
2017-11-14T03:40:47.972Z,98.91
2017-11-14T03:41:47.956Z,98.48
2017-11-14T03:42:47.940Z,98.58
2017-11-14T03:43:47.924Z,98.96
2017-11-14T03:44:47.585Z,99.15
2017-11-14T03:45:47.574Z,98.77
2017-11-14T03:46:47.879Z,99.05
2017-11-14T03:47:47.863Z,99.05
2017-11-14T03:48:47.852Z,99.43
2017-11-14T03:49:47.512Z,99.43
2017-11-14T03:50:47.821Z,99.43
2017-11-14T03:51:47.803Z,99.05
2017-11-14T03:52:47.468Z,99.24
2017-11-14T03:53:47.774Z,99.24
2017-11-14T03:54:47.757Z,99.24
2017-11-14T03:55:47.747Z,99.15
2017-11-14T03:56:47.727Z,99.24
2017-11-14T03:57:47.714Z,99.52
2017-11-14T03:58:47.700Z,99.15
2017-11-14T03:59:47.683Z,99.33
2017-11-14T04:00:47.679Z,99.33
2017-11-14T04:01:47.657Z,99.24
2017-11-14T04:02:47.641Z,99.33
2017-11-14T04:03:47.632Z,99.1
2017-11-14T04:04:47.608Z,98.96
2017-11-14T04:05:47.592Z,98.96
2017-11-14T04:06:47.575Z,99.24
2017-11-14T04:07:47.565Z,99.15
2017-11-14T04:08:47.551Z,99.38
2017-11-14T04:09:47.536Z,99.29
2017-11-14T04:10:47.517Z,99.19
2017-11-14T04:11:47.501Z,99.38
2017-11-14T04:12:47.487Z,99.38
2017-11-14T04:13:47.477Z,99.38
2017-11-14T04:14:47.465Z,99.38
2017-11-14T04:15:47.443Z,99.38
2017-11-14T04:16:47.427Z,99.57
2017-11-14T04:17:47.410Z,99.57
2017-11-14T04:18:47.442Z,99.38
2017-11-14T04:19:47.378Z,99.01
2017-11-14T04:20:47.366Z,98.91
2017-11-14T04:21:47.370Z,98.82
2017-11-14T04:22:47.335Z,99.1
2017-11-14T04:23:46.996Z,98.82
2017-11-14T04:24:47.302Z,98.91
2017-11-14T04:25:47.296Z,99.01
2017-11-14T04:26:47.274Z,98.82
2017-11-14T04:27:47.283Z,98.63
2017-11-14T04:28:47.245Z,98.72
2017-11-14T04:29:47.228Z,98.63
2017-11-14T04:30:47.218Z,98.63
2017-11-14T04:31:47.197Z,98.91
2017-11-14T04:32:47.184Z,98.53
2017-11-14T04:33:47.174Z,98.53
2017-11-14T04:34:47.153Z,98.34
2017-11-14T04:35:47.139Z,98.72
2017-11-14T04:36:47.129Z,98.53
2017-11-14T04:37:47.120Z,98.63
2017-11-14T04:38:47.092Z,98.53
2017-11-14T04:39:47.078Z,98.72
2017-11-14T04:40:47.064Z,98.82
2017-11-14T04:41:47.049Z,99.19
2017-11-14T04:42:47.037Z,99.19
2017-11-14T04:43:47.028Z,98.44
2017-11-14T04:44:47.009Z,98.44
2017-11-14T04:45:46.991Z,98.63
2017-11-14T04:46:46.979Z,98.72
2017-11-14T04:47:46.969Z,98.91
2017-11-14T04:48:46.949Z,98.82
2017-11-14T04:49:46.930Z,98.72
2017-11-14T04:50:46.930Z,98.06
2017-11-14T04:51:46.579Z,98.06
2017-11-14T04:52:46.901Z,98.34
2017-11-14T04:53:46.547Z,98.63
2017-11-14T04:54:46.859Z,98.72
2017-11-14T04:55:46.845Z,98.72
2017-11-14T04:56:46.826Z,98.72
2017-11-14T04:57:46.814Z,98.72
2017-11-14T04:58:46.806Z,98.34
2017-11-14T04:59:46.793Z,98.25
2017-11-14T05:00:46.768Z,98.25
2017-11-14T05:01:46.760Z,98.25
2017-11-14T05:02:46.748Z,98.34
2017-11-14T05:03:46.726Z,98.72
2017-11-14T05:04:46.723Z,98.72
2017-11-14T05:05:46.713Z,98.53
2017-11-14T05:06:46.680Z,98.72
2017-11-14T05:07:46.663Z,98.82
2017-11-14T05:08:46.907Z,98.82
2017-11-14T05:09:46.648Z,99.01
2017-11-14T05:10:46.619Z,99.01
2017-11-14T05:11:46.605Z,98.82
2017-11-14T05:12:46.588Z,99.01
2017-11-14T05:13:46.588Z,98.53
2017-11-14T05:14:46.565Z,98.72
2017-11-14T05:15:46.546Z,99.1
2017-11-14T05:16:46.529Z,99.19
2017-11-14T05:17:46.520Z,99.19
2017-11-14T05:18:46.502Z,99.01
2017-11-14T05:19:46.485Z,99.19
2017-11-14T05:20:46.471Z,99.01
2017-11-14T05:21:46.460Z,99.19
2017-11-14T05:22:46.441Z,98.82
2017-11-14T05:23:46.429Z,99.19
2017-11-14T05:24:46.411Z,99.01
2017-11-14T05:25:46.424Z,99.1
2017-11-14T05:26:46.380Z,99.19
2017-11-14T05:27:46.393Z,99.1
2017-11-14T05:28:46.346Z,99.01
2017-11-14T05:29:46.339Z,99.19
2017-11-14T05:30:46.318Z,99.01
2017-11-14T05:31:46.308Z,99.19
2017-11-14T05:32:46.289Z,99.1
2017-11-14T05:33:46.271Z,98.53
2017-11-14T05:34:46.260Z,99.1
2017-11-14T05:35:46.245Z,99.01
2017-11-14T05:36:46.237Z,99.19
2017-11-14T05:37:46.214Z,99.15
2017-11-14T05:38:46.204Z,98.86
2017-11-14T05:39:46.434Z,98.96
2017-11-14T05:40:46.164Z,98.96
2017-11-14T05:41:46.147Z,98.77
2017-11-14T05:42:46.133Z,98.96
2017-11-14T05:43:46.121Z,98.96
2017-11-14T05:44:46.112Z,99.05
2017-11-14T05:45:46.089Z,98.77
2017-11-14T05:46:46.074Z,99.05
2017-11-14T05:47:46.069Z,99.43
2017-11-14T05:48:46.044Z,98.86
2017-11-14T05:49:46.026Z,98.96
2017-11-14T05:50:45.689Z,98.86
2017-11-14T05:51:45.996Z,99.05
2017-11-14T05:52:45.987Z,99.52
2017-11-14T05:53:45.967Z,99.52
2017-11-14T05:54:45.956Z,99.62
2017-11-14T05:55:45.939Z,99.05
2017-11-14T05:56:45.923Z,99.19
2017-11-14T05:57:45.916Z,99.1
2017-11-14T05:58:45.891Z,99.57
2017-11-14T05:59:45.876Z,99.48
2017-11-14T06:00:45.859Z,99.57
2017-11-14T06:01:45.522Z,99.38
2017-11-14T06:02:45.832Z,99.38
2017-11-14T06:03:45.814Z,99.57
2017-11-14T06:04:45.802Z,99.48
2017-11-14T06:05:45.783Z,99.38
2017-11-14T06:06:45.773Z,99.38
2017-11-14T06:07:45.756Z,99.01
2017-11-14T06:08:45.744Z,99.38
2017-11-14T06:09:45.722Z,99.38
2017-11-14T06:10:45.723Z,99.38
2017-11-14T06:11:45.698Z,99.38
2017-11-14T06:12:45.680Z,99.01
2017-11-14T06:13:45.664Z,98.91
2017-11-14T06:14:45.653Z,99.01
2017-11-14T06:15:45.653Z,98.91
2017-11-14T06:16:45.618Z,98.63
2017-11-14T06:17:45.601Z,99.1
2017-11-14T06:18:45.587Z,99.01
2017-11-14T06:19:45.574Z,99.29
2017-11-14T06:20:45.568Z,99.01
2017-11-14T06:21:45.545Z,99.01
2017-11-14T06:22:45.534Z,99.01
2017-11-14T06:23:45.513Z,98.82
2017-11-14T06:24:45.507Z,99.01
2017-11-14T06:25:45.484Z,98.72
2017-11-14T06:26:45.474Z,98.72
2017-11-14T06:27:45.459Z,98.82
2017-11-14T06:28:45.437Z,98.91
2017-11-14T06:29:45.420Z,98.91
2017-11-14T06:30:45.406Z,98.82
2017-11-14T06:31:45.394Z,98.91
2017-11-14T06:32:45.376Z,98.72
2017-11-14T06:33:45.038Z,99.48
2017-11-14T06:34:45.350Z,98.68
2017-11-14T06:35:45.334Z,98.49
2017-11-14T06:36:45.314Z,98.39
2017-11-14T06:37:44.979Z,98.86
2017-11-14T06:38:45.286Z,98.58
2017-11-14T06:39:45.275Z,98.49
2017-11-14T06:40:45.270Z,98.58
2017-11-14T06:41:45.245Z,98.86
2017-11-14T06:42:45.226Z,98.96
2017-11-14T06:43:44.888Z,98.3
2017-11-14T06:44:45.199Z,98.49
2017-11-14T06:45:45.195Z,98.77
2017-11-14T06:46:44.843Z,98.77
2017-11-14T06:47:45.157Z,98.86
2017-11-14T06:48:45.140Z,98.77
2017-11-14T06:49:45.152Z,98.68
2017-11-14T06:50:45.125Z,98.77
2017-11-14T06:51:45.096Z,98.77
2017-11-14T06:52:45.081Z,98.77
2017-11-14T06:53:45.069Z,98.68
2017-11-14T06:54:45.053Z,98.86
2017-11-14T06:55:45.036Z,98.77
2017-11-14T06:56:45.027Z,98.77
2017-11-14T06:57:45.017Z,98.68
2017-11-14T06:58:44.668Z,98.58
2017-11-14T06:59:44.990Z,98.58
2017-11-14T07:00:44.968Z,98.86
2017-11-14T07:01:44.959Z,98.49
2017-11-14T07:02:44.612Z,98.58
2017-11-14T07:03:44.924Z,98.39
2017-11-14T07:04:44.915Z,98.49
2017-11-14T07:05:44.899Z,98.49
2017-11-14T07:06:44.880Z,98.44
2017-11-14T07:07:44.869Z,98.44
2017-11-14T07:08:44.528Z,98.25
2017-11-14T07:09:44.835Z,98.63
2017-11-14T07:10:44.837Z,98.35
2017-11-14T07:11:44.808Z,98.54
2017-11-14T07:12:44.470Z,98.54
2017-11-14T07:13:44.782Z,98.35
2017-11-14T07:14:44.769Z,98.91
2017-11-14T07:15:44.750Z,98.16
2017-11-14T07:16:44.750Z,98.63
2017-11-14T07:17:44.939Z,98.54
2017-11-14T07:18:44.712Z,98.63
2017-11-14T07:19:44.697Z,97.68
2017-11-14T07:20:44.684Z,97.68
2017-11-14T07:21:44.689Z,97.97
2017-11-14T07:22:44.651Z,98.16
2017-11-14T07:23:44.649Z,97.83
2017-11-14T07:24:44.641Z,98.11
2017-11-14T07:25:44.613Z,97.73
2017-11-14T07:26:44.612Z,97.64
2017-11-14T07:27:44.594Z,97.92
2017-11-14T07:28:44.573Z,97.64
2017-11-14T07:29:44.237Z,97.83
2017-11-14T07:30:44.551Z,98.02
2017-11-14T07:31:44.534Z,97.83
2017-11-14T07:32:44.521Z,97.73
2017-11-14T07:33:44.183Z,97.73
2017-11-14T07:34:44.489Z,98.02
2017-11-14T07:35:44.479Z,97.92
2017-11-14T07:36:44.145Z,98.02
2017-11-14T07:37:44.448Z,97.92
2017-11-14T07:38:44.450Z,97.83
2017-11-14T07:39:44.421Z,97.54
2017-11-14T07:40:44.420Z,97.73
2017-11-14T07:41:44.396Z,97.26
2017-11-14T07:42:44.380Z,97.83
2017-11-14T07:43:44.367Z,97.69
2017-11-14T07:44:44.029Z,97.59
2017-11-14T07:45:44.375Z,97.59
2017-11-14T07:46:44.333Z,97.78
2017-11-14T07:47:44.315Z,97.5
2017-11-14T07:48:44.303Z,97.21
2017-11-14T07:49:44.301Z,97.59
2017-11-14T07:50:44.295Z,97.21
2017-11-14T07:51:44.283Z,97.21
2017-11-14T07:52:44.271Z,97.12
2017-11-14T07:53:44.234Z,97.31
2017-11-14T07:54:44.225Z,97.21
2017-11-14T07:55:44.217Z,97.55
2017-11-14T07:56:44.204Z,97.17
2017-11-14T07:57:44.182Z,96.97
2017-11-14T07:58:44.422Z,96.97
2017-11-14T07:59:44.167Z,96.97
2017-11-14T08:00:44.150Z,96.69
2017-11-14T08:01:43.845Z,96.97
2017-11-14T08:02:44.137Z,96.97
2017-11-14T08:03:43.783Z,97.17
2017-11-14T08:04:44.100Z,97.26
2017-11-14T08:05:44.082Z,97.26
2017-11-14T08:06:44.097Z,97.36
2017-11-14T08:07:44.100Z,96.88
2017-11-14T08:08:44.055Z,96.5
2017-11-14T08:09:44.041Z,96.78
2017-11-14T08:10:44.031Z,96.78
2017-11-14T08:11:44.017Z,96.97
2017-11-14T08:12:44.001Z,96.97
2017-11-14T08:13:43.988Z,96.78
2017-11-14T08:14:43.987Z,97.17
2017-11-14T08:15:44.215Z,96.78
2017-11-14T08:16:43.962Z,96.59
2017-11-14T08:17:43.950Z,96.97
2017-11-14T08:18:43.941Z,96.97
2017-11-14T08:19:43.616Z,96.64
2017-11-14T08:20:43.944Z,96.83
2017-11-14T08:21:43.924Z,96.74
2017-11-14T08:22:43.930Z,96.74
2017-11-14T08:23:43.865Z,96.83
2017-11-14T08:24:43.856Z,97.02
2017-11-14T08:25:43.858Z,97.41
2017-11-14T08:26:43.850Z,96.74
2017-11-14T08:27:43.821Z,97.12
2017-11-14T08:28:43.500Z,97.02
2017-11-14T08:29:43.799Z,97.12
2017-11-14T08:30:43.788Z,97.12
2017-11-14T08:31:43.773Z,96.83
2017-11-14T08:32:43.757Z,96.74
2017-11-14T08:33:43.768Z,97.12
2017-11-14T08:34:43.753Z,97.12
2017-11-14T08:35:43.729Z,97.12
2017-11-14T08:36:43.723Z,96.83
2017-11-14T08:37:43.717Z,97.02
2017-11-14T08:38:43.688Z,96.83
2017-11-14T08:39:43.673Z,96.55
2017-11-14T08:40:43.659Z,96.45
2017-11-14T08:41:43.660Z,96.64
2017-11-14T08:42:43.647Z,97.12
2017-11-14T08:43:43.644Z,96.83
2017-11-14T08:44:43.617Z,96.83
2017-11-14T08:45:43.613Z,97.22
2017-11-14T08:46:43.871Z,96.93
2017-11-14T08:47:43.588Z,97.12
2017-11-14T08:48:43.569Z,96.74
2017-11-14T08:49:43.593Z,97.02
2017-11-14T08:50:43.602Z,97.22
2017-11-14T08:51:43.541Z,97.36
2017-11-14T08:52:43.583Z,97.55
2017-11-14T08:53:43.514Z,96.69
2017-11-14T08:54:43.509Z,96.31
2017-11-14T08:55:43.522Z,96.36
2017-11-14T08:56:43.527Z,96.26
2017-11-14T08:57:43.554Z,96.17
2017-11-14T08:58:43.474Z,96.74
2017-11-14T08:59:43.447Z,96.88
2017-11-14T09:00:43.452Z,96.98
2017-11-14T09:01:43.421Z,97.22
2017-11-14T09:02:43.417Z,96.98
2017-11-14T09:03:43.417Z,97.17
2017-11-14T09:04:43.462Z,96.64
2017-11-14T09:05:43.373Z,97.07
2017-11-14T09:06:43.373Z,96.93
2017-11-14T09:07:43.351Z,97.45
2017-11-14T09:08:43.373Z,96.88
2017-11-14T09:09:43.418Z,97.17
2017-11-14T09:10:43.626Z,97.27
2017-11-14T09:11:43.354Z,97.27
2017-11-14T09:12:43.380Z,97.17
2017-11-14T09:13:43.324Z,97.07
2017-11-14T09:14:43.283Z,96.98
2017-11-14T09:15:43.291Z,96.5
2017-11-14T09:16:43.270Z,96.79
2017-11-14T09:17:43.238Z,96.5
2017-11-14T09:18:43.469Z,96.6
2017-11-14T09:19:43.248Z,96.69
2017-11-14T09:20:43.256Z,96.69
2017-11-14T09:21:43.211Z,96.93
2017-11-14T09:22:43.198Z,96.74
2017-11-14T09:23:43.176Z,96.45
2017-11-14T09:24:43.173Z,96.55
2017-11-14T09:25:43.148Z,96.17
2017-11-14T09:26:43.139Z,96.74
2017-11-14T09:27:42.835Z,96.26
2017-11-14T09:28:43.125Z,96.17
2017-11-14T09:29:43.139Z,96.55
2017-11-14T09:30:43.104Z,96.74
2017-11-14T09:31:43.082Z,96.55
2017-11-14T09:32:43.075Z,96.36
2017-11-14T09:33:43.067Z,96.08
2017-11-14T09:34:43.062Z,96.45
2017-11-14T09:35:43.051Z,96.36
2017-11-14T09:36:43.031Z,96.45
2017-11-14T09:37:43.027Z,96.26
2017-11-14T09:38:43.022Z,96.26
2017-11-14T09:39:43.030Z,96.45
2017-11-14T09:40:42.985Z,96.08
2017-11-14T09:41:42.994Z,96.55
2017-11-14T09:42:42.990Z,96.26
2017-11-14T09:43:42.953Z,96.36
2017-11-14T09:44:42.951Z,96.17
2017-11-14T09:45:43.008Z,96.55
2017-11-14T09:46:42.947Z,96.26
2017-11-14T09:47:42.974Z,95.6
2017-11-14T09:48:42.942Z,96.26
2017-11-14T09:49:42.896Z,96.22
2017-11-14T09:50:42.909Z,96.22
2017-11-14T09:51:42.887Z,96.41
2017-11-14T09:52:42.917Z,96.22
2017-11-14T09:53:42.883Z,96.41
2017-11-14T09:54:42.840Z,96.22
2017-11-14T09:55:42.842Z,96.22
2017-11-14T09:56:42.880Z,96.31
2017-11-14T09:57:42.842Z,96.5
2017-11-14T09:58:42.812Z,96.31
2017-11-14T09:59:42.793Z,96.41
2017-11-14T10:00:42.831Z,96.22
2017-11-14T10:01:42.791Z,96.41
2017-11-14T10:02:42.768Z,96.03
2017-11-14T10:03:42.748Z,96.03
2017-11-14T10:04:42.445Z,96.31
2017-11-14T10:05:42.956Z,95.94
2017-11-14T10:06:42.725Z,96.6
2017-11-14T10:07:42.722Z,95.94
2017-11-14T10:08:42.729Z,96.41
2017-11-14T10:09:42.705Z,96.6
2017-11-14T10:10:42.751Z,96.31
2017-11-14T10:11:42.696Z,96.89
2017-11-14T10:12:42.674Z,96.31
2017-11-14T10:13:42.648Z,96.5
2017-11-14T10:14:42.387Z,96.69
2017-11-14T10:15:42.623Z,96.79
2017-11-14T10:16:42.614Z,96.79
2017-11-14T10:17:42.618Z,96.41
2017-11-14T10:18:42.599Z,96.89
2017-11-14T10:19:42.616Z,96.98
2017-11-14T10:20:42.572Z,96.79
2017-11-14T10:21:42.593Z,96.22
2017-11-14T10:22:42.232Z,96.79
2017-11-14T10:23:42.609Z,96.31
2017-11-14T10:24:42.539Z,96.5
2017-11-14T10:25:42.233Z,96.5
2017-11-14T10:26:42.551Z,96.79
2017-11-14T10:27:42.512Z,96.12
2017-11-14T10:28:42.500Z,96.03
2017-11-14T10:29:42.561Z,96.03
2017-11-14T10:30:43.323Z,95.65
2017-11-14T10:31:42.476Z,96.79
2017-11-14T10:32:42.525Z,96.74
2017-11-14T10:33:42.461Z,96.26
2017-11-14T10:34:42.440Z,96.5
2017-11-14T10:35:42.417Z,96.31
2017-11-14T10:36:42.424Z,96.22
2017-11-14T10:37:42.624Z,96.79
2017-11-14T10:38:42.070Z,96.41
2017-11-14T10:39:42.070Z,96.41
2017-11-14T10:40:42.402Z,96.41
2017-11-14T10:41:42.034Z,96.79
2017-11-14T10:42:42.392Z,96.22
2017-11-14T10:43:42.336Z,96.03
2017-11-14T10:44:42.333Z,96.5
2017-11-14T10:45:42.324Z,96.31
2017-11-14T10:46:42.312Z,96.5
2017-11-14T10:47:42.333Z,96.41
2017-11-14T10:48:42.283Z,96.84
2017-11-14T10:49:42.281Z,96.55
2017-11-14T10:50:42.269Z,96.94
2017-11-14T10:51:42.307Z,96.17
2017-11-14T10:52:42.270Z,95.98
2017-11-14T10:53:42.248Z,96.65
2017-11-14T10:54:42.271Z,96.55
2017-11-14T10:55:42.242Z,95.89
2017-11-14T10:56:42.579Z,96.17
2017-11-14T10:57:42.252Z,96.17
2017-11-14T10:58:42.200Z,95.89
2017-11-14T10:59:42.409Z,95.98
2017-11-14T11:00:42.202Z,96.36
2017-11-14T11:01:42.197Z,96.74
2017-11-14T11:02:42.188Z,96.65
2017-11-14T11:03:42.327Z,96.46
2017-11-14T11:04:42.153Z,96.36
2017-11-14T11:05:42.164Z,96.7
2017-11-14T11:06:42.132Z,95.94
2017-11-14T11:07:42.124Z,96.31
2017-11-14T11:08:42.114Z,96.22
2017-11-14T11:09:42.106Z,95.75
2017-11-14T11:10:42.110Z,96.41
2017-11-14T11:11:42.108Z,95.84
2017-11-14T11:12:42.109Z,95.75
2017-11-14T11:13:42.100Z,96.31
2017-11-14T11:14:42.081Z,96.22
2017-11-14T11:15:42.038Z,95.65
2017-11-14T11:16:42.052Z,96.22
2017-11-14T11:17:42.109Z,96.12
2017-11-14T11:18:42.024Z,96.22
2017-11-14T11:19:41.711Z,96.31
2017-11-14T11:20:41.985Z,96.03
2017-11-14T11:21:42.019Z,95.84
2017-11-14T11:22:41.998Z,96.41
2017-11-14T11:23:42.000Z,96.41
2017-11-14T11:24:41.968Z,96.03
2017-11-14T11:25:41.960Z,96.03
2017-11-14T11:26:41.921Z,96.31
2017-11-14T11:27:41.910Z,96.12
2017-11-14T11:28:41.938Z,95.75
2017-11-14T11:29:41.927Z,96.03
2017-11-14T11:30:41.895Z,95.84
2017-11-14T11:31:41.917Z,96.31
2017-11-14T11:32:41.884Z,96.12
2017-11-14T11:33:41.861Z,96.22
2017-11-14T11:34:41.877Z,96.31
2017-11-14T11:35:41.853Z,96.41
2017-11-14T11:36:41.865Z,96.03
2017-11-14T11:37:41.859Z,96.7
2017-11-14T11:38:41.818Z,97.03
2017-11-14T11:39:41.840Z,95.89
2017-11-14T11:40:41.803Z,96.27
2017-11-14T11:41:41.460Z,96.27
2017-11-14T11:42:41.816Z,96.17
2017-11-14T11:43:42.004Z,96.36
2017-11-14T11:44:41.800Z,96.27
2017-11-14T11:45:41.749Z,96.17
2017-11-14T11:46:41.737Z,96.08
2017-11-14T11:47:41.726Z,95.89
2017-11-14T11:48:41.799Z,95.94
2017-11-14T11:49:41.706Z,95.22
2017-11-14T11:50:41.702Z,95.12
2017-11-14T11:51:41.377Z,95.32
2017-11-14T11:52:41.687Z,95.98
2017-11-14T11:53:41.938Z,96.08
2017-11-14T11:54:41.692Z,95.79
2017-11-14T11:55:41.347Z,95.89
2017-11-14T11:56:41.356Z,95.98
2017-11-14T11:57:41.668Z,95.79
2017-11-14T11:58:41.635Z,95.7
2017-11-14T11:59:41.629Z,96.08
2017-11-14T12:00:41.603Z,95.79
2017-11-14T12:01:41.641Z,95.22
2017-11-14T12:02:41.612Z,95.41
2017-11-14T12:03:41.620Z,95.98
2017-11-14T12:04:41.581Z,96.08
2017-11-14T12:05:41.574Z,95.32
2017-11-14T12:06:41.558Z,95.32
2017-11-14T12:07:41.540Z,95.79
2017-11-14T12:08:41.550Z,96.08
2017-11-14T12:09:41.540Z,96.17
2017-11-14T12:10:41.571Z,95.41
2017-11-14T12:11:41.746Z,95.6
2017-11-14T12:12:41.537Z,95.32
2017-11-14T12:13:41.498Z,95.32
2017-11-14T12:14:41.483Z,95.41
2017-11-14T12:15:41.473Z,95.89
2017-11-14T12:16:41.474Z,95.89
2017-11-14T12:17:41.138Z,96.08
2017-11-14T12:18:41.447Z,95.7
2017-11-14T12:19:41.444Z,95.79
2017-11-14T12:20:41.475Z,95.41
2017-11-14T12:21:41.473Z,96.27
2017-11-14T12:22:41.680Z,96.17
2017-11-14T12:23:41.440Z,95.6
2017-11-14T12:24:41.410Z,95.79
2017-11-14T12:25:41.415Z,95.6
2017-11-14T12:26:41.065Z,95.89
2017-11-14T12:27:41.409Z,95.41
2017-11-14T12:28:41.385Z,95.98
2017-11-14T12:29:41.352Z,96.08
2017-11-14T12:30:41.339Z,96.17
2017-11-14T12:31:41.371Z,96.08
2017-11-14T12:32:41.358Z,95.79
2017-11-14T12:33:41.341Z,96.55
2017-11-14T12:34:41.324Z,95.89
2017-11-14T12:35:41.338Z,95.79
2017-11-14T12:36:41.292Z,95.51
2017-11-14T12:37:41.280Z,95.51
2017-11-14T12:38:41.277Z,95.98
2017-11-14T12:39:41.269Z,95.41
2017-11-14T12:40:41.252Z,95.41
2017-11-14T12:41:41.243Z,95.6
2017-11-14T12:42:41.236Z,95.51
2017-11-14T12:43:41.241Z,95.6
2017-11-14T12:44:41.215Z,95.6
2017-11-14T12:45:41.228Z,94.74
2017-11-14T12:46:40.872Z,95.79
2017-11-14T12:47:40.868Z,95.7
2017-11-14T12:48:41.180Z,95.51
2017-11-14T12:49:41.169Z,95.41
2017-11-14T12:50:41.163Z,95.89
2017-11-14T12:51:41.153Z,95.98
2017-11-14T12:52:41.141Z,96.36
2017-11-14T12:53:41.135Z,96.17
2017-11-14T12:54:41.150Z,96.55